Time;durP1;ratioP1;P1;durP2;ratioP2;P2;SDS_P1;SDS_P2;PMS_P1;PMS_P2;Temp;Humidity;BMP_temperature;BMP_pressure;BME280_temperature;BME280_humidity;BME280_pressure;Samples;Min_cycle;Max_cycle;Signal;HPM_P1;HPM_P2
2022/04/20 00:00:09;;;;;;;;;;;;;;;;;;350079;28;1003;-80
2022/04/20 00:00:20;;;;;;;;;;;;;;;;;;350053;28;877;-81
2022/04/20 00:00:31;;;;;;;;;;;;;;;;;;349970;28;1844;-80
2022/04/20 00:00:41;;;;;;;;;;;;;;;;;;350246;28;1471;-81
2022/04/20 00:00:52;;;;;;;;;;;;;;;;;;350219;28;1751;-80
2022/04/20 00:01:02;;;;;;;;;;;;;;;;;;350099;28;905;-80
2022/04/20 00:01:12;;;;;;;;;;;;;;;;;;348755;28;860;-81
2022/04/20 00:01:23;;;;;;;;;;;;;;;;;;348768;28;849;-81
2022/04/20 00:01:33;;;;;;;;;;;;;;;;;;348745;28;1088;-80
2022/04/20 00:01:43;;;;;;;;;;;;;;;;;;348612;28;936;-80
2022/04/20 00:01:53;;;;;;;;;;;;;;;;;;348698;28;964;-80
2022/04/20 00:02:04;;;;;;;;;;;;;;;;;;348757;28;939;-80
2022/04/20 00:02:14;;;;;;;;;;;;;;;;;;348755;28;924;-80
2022/04/20 00:02:24;;;;;;;;;;;;;;;;;;348723;28;870;-80
2022/04/20 00:02:35;;;;;;;;;;;;;;;;;;348414;28;1782;-81
2022/04/20 00:02:45;;;;;;;;;;;;;;;;;;348859;28;1527;-80
2022/04/20 00:02:55;;;;;;;;;;;;;;;;;;349894;28;1732;-80
2022/04/20 00:03:05;;;;;;;;;;;;;;;;;;349967;28;925;-80
2022/04/20 00:03:15;;;;;;;;;;;;;;;;;;348738;28;924;-80
2022/04/20 00:03:26;;;;;;;;;;;;;;;;;;348706;28;814;-80
2022/04/20 00:03:38;;;;;;;;;;;;;;;;;;348719;28;1023;-80
2022/04/20 00:03:48;;;;;;;;;;;;;;;;;;348673;28;983;-80
2022/04/20 00:03:59;;;;;;;;;;;;;;;;;;348715;28;932;-80
2022/04/20 00:04:09;;;;;;;;;;;;;;;;;;348664;28;960;-80
2022/04/20 00:04:20;;;;;;;;;;;;;;;;;;348709;28;904;-80
2022/04/20 00:04:30;;;;;;;;;;;;;;;;;;348581;28;1821;-80
2022/04/20 00:04:40;;;;;;;;;;;;;;;;;;349517;28;1704;-80
2022/04/20 00:04:53;;;;;;;;;;;;;;;;;;350056;28;963;-80
2022/04/20 00:05:04;;;;;;;;;;;;;;;;;;348675;28;1585;-80
2022/04/20 00:05:14;;;;;;;;;;;;;;;;;;349661;28;1744;-80
2022/04/20 00:05:24;;;;;;;;;;;;;;;;;;350093;28;920;-81
2022/04/20 00:05:34;;;;;;;;;;;;;;;;;;348839;28;959;-81
2022/04/20 00:05:44;;;;;;;;;;;;;;;;;;348688;28;909;-80
2022/04/20 00:05:55;;;;;;;;;;;;;;;;;;348725;28;932;-80
2022/04/20 00:06:05;;;;;;;;;;;;;;;;;;348637;28;821;-80
2022/04/20 00:06:15;;;;;;;;;;;;;;;;;;348701;28;853;-80
2022/04/20 00:06:26;;;;;;;;;;;;;;;;;;348760;28;942;-80
2022/04/20 00:06:36;;;;;;;;;;;;;;;;;;348666;28;1007;-80
2022/04/20 00:06:46;;;;;;;;;;;;;;;;;;348738;28;794;-80
2022/04/20 00:06:56;;;;;;;;;;;;;;;;;;348724;28;857;-81
2022/04/20 00:07:09;;;;;;;;;;;;;;;;;;348689;28;959;-80
2022/04/20 00:07:19;;;;;;;;;;;;;;;;;;348673;28;1019;-81
2022/04/20 00:07:29;;;;;;;;;;;;;;;;;;349772;28;1325;-81
2022/04/20 00:07:39;;;;;;;;;;;;;;;;;;350390;28;1246;-80
2022/04/20 00:07:49;;;;;;;;;;;;;;;;;;349920;28;1281;-80
2022/04/20 00:08:00;;;;;;;;;;;;;;;;;;350031;28;971;-80
2022/04/20 00:08:11;;;;;;;;;;;;;;;;;;350075;28;852;-81
2022/04/20 00:08:21;;;;;;;;;;;;;;;;;;350130;28;995;-80
2022/04/20 00:08:32;;;;;;;;;;;;;;;;;;350068;28;920;-80
2022/04/20 00:08:42;;;;;;;;;;;;;;;;;;350047;28;1038;-81
2022/04/20 00:08:53;;;;;;;;;;;;;;;;;;350129;28;888;-81
2022/04/20 00:09:03;;;;;;;;;;;;;;;;;;350058;28;978;-81
2022/04/20 00:09:14;;;;;;;;;;;;;;;;;;350111;28;956;-80
2022/04/20 00:09:24;;;;;;;;;;;;;;;;;;349822;28;1317;-80
2022/04/20 00:09:34;;;;;;;;;;;;;;;;;;349997;28;1507;-80
2022/04/20 00:09:44;;;;;;;;;;;;;;;;;;350074;28;897;-81
2022/04/20 00:09:55;;;;;;;;;;;;;;;;;;350063;28;881;-80
2022/04/20 00:10:07;;;;;;;;;;;;;;;;;;350019;28;888;-80
2022/04/20 00:10:17;;;;;;;;;;;;;;;;;;350095;28;1003;-81
2022/04/20 00:10:28;;;;;;;;;;;;;;;;;;350101;28;983;-80
2022/04/20 00:10:38;;;;;;;;;;;;;;;;;;350067;28;1042;-80
2022/04/20 00:10:49;;;;;;;;;;;;;;;;;;350039;28;963;-80
2022/04/20 00:10:59;;;;;;;;;;;;;;;;;;350075;28;972;-80
2022/04/20 00:11:09;;;;;;;;;;;;;;;;;;350095;28;986;-81
2022/04/20 00:11:19;;;;;;;;;;;;;;;;;;350108;28;975;-81
2022/04/20 00:11:30;;;;;;;;;;;;;;;;;;350064;28;1025;-80
2022/04/20 00:11:40;;;;;;;;;;;;;;;;;;350067;28;927;-80
2022/04/20 00:11:50;;;;;;;;;;;;;;;;;;350077;28;1004;-80
2022/04/20 00:12:01;;;;;;;;;;;;;;;;;;350135;28;781;-80
2022/04/20 00:12:11;;;;;;;;;;;;;;;;;;350023;28;932;-80
2022/04/20 00:12:21;;;;;;;;;;;;;;;;;;350041;28;1042;-80
2022/04/20 00:12:31;;;;;;;;;;;;;;;;;;350075;28;928;-80
2022/04/20 00:12:41;;;;;;;;;;;;;;;;;;350063;28;975;-80
2022/04/20 00:12:52;;;;;;;;;;;;;;;;;;349829;28;1238;-80
2022/04/20 00:13:02;;;;;;;;;;;;;;;;;;349997;28;1513;-80
2022/04/20 00:13:12;;;;;;;;;;;;;;;;;;350060;28;975;-80
2022/04/20 00:13:22;;;;;;;;;;;;;;;;;;350012;28;908;-80
2022/04/20 00:13:33;;;;;;;;;;;;;;;;;;350113;28;892;-80
2022/04/20 00:13:43;;;;;;;;;;;;;;;;;;350156;28;817;-80
2022/04/20 00:13:53;;;;;;;;;;;;;;;;;;350097;28;909;-80
2022/04/20 00:14:04;;;;;;;;;;;;;;;;;;350045;28;1104;-80
2022/04/20 00:14:14;;;;;;;;;;;;;;;;;;348544;28;1679;-80
2022/04/20 00:14:24;;;;;;;;;;;;;;;;;;349497;28;1756;-81
2022/04/20 00:14:35;;;;;;;;;;;;;;;;;;350073;28;975;-80
2022/04/20 00:14:45;;;;;;;;;;;;;;;;;;349015;28;848;-80
2022/04/20 00:14:55;;;;;;;;;;;;;;;;;;348682;28;909;-80
2022/04/20 00:15:06;;;;;;;;;;;;;;;;;;348647;28;913;-80
2022/04/20 00:15:16;;;;;;;;;;;;;;;;;;348716;28;794;-80
2022/04/20 00:15:26;;;;;;;;;;;;;;;;;;348769;28;909;-80
2022/04/20 00:15:36;;;;;;;;;;;;;;;;;;348683;28;841;-80
2022/04/20 00:15:47;;;;;;;;;;;;;;;;;;348686;28;1039;-80
2022/04/20 00:15:57;;;;;;;;;;;;;;;;;;348675;28;924;-80
2022/04/20 00:16:08;;;;;;;;;;;;;;;;;;349509;28;1364;-80
2022/04/20 00:16:18;;;;;;;;;;;;;;;;;;349976;28;924;-80
2022/04/20 00:16:28;;;;;;;;;;;;;;;;;;350065;28;876;-80
2022/04/20 00:16:38;;;;;;;;;;;;;;;;;;350061;28;963;-80
2022/04/20 00:16:48;;;;;;;;;;;;;;;;;;350105;28;923;-80
2022/04/20 00:16:59;;;;;;;;;;;;;;;;;;350081;28;786;-80
2022/04/20 00:17:09;;;;;;;;;;;;;;;;;;350089;28;900;-80
2022/04/20 00:17:20;;;;;;;;;;;;;;;;;;350010;28;1000;-81
2022/04/20 00:17:30;;;;;;;;;;;;;;;;;;350118;28;805;-81
2022/04/20 00:17:40;;;;;;;;;;;;;;;;;;350042;28;924;-80
2022/04/20 00:17:50;;;;;;;;;;;;;;;;;;350013;28;1086;-80
2022/04/20 00:18:01;;;;;;;;;;;;;;;;;;350080;28;987;-80
2022/04/20 00:18:11;;;;;;;;;;;;;;;;;;350032;28;971;-80
2022/04/20 00:18:21;;;;;;;;;;;;;;;;;;350042;28;826;-80
2022/04/20 00:18:31;;;;;;;;;;;;;;;;;;350039;28;967;-80
2022/04/20 00:18:42;;;;;;;;;;;;;;;;;;350110;28;859;-80
2022/04/20 00:18:52;;;;;;;;;;;;;;;;;;350049;28;937;-80
2022/04/20 00:19:02;;;;;;;;;;;;;;;;;;350085;28;959;-80
2022/04/20 00:19:12;;;;;;;;;;;;;;;;;;350017;28;908;-80
2022/04/20 00:19:23;;;;;;;;;;;;;;;;;;350052;28;923;-80
2022/04/20 00:19:33;;;;;;;;;;;;;;;;;;350061;28;964;-80
2022/04/20 00:19:43;;;;;;;;;;;;;;;;;;349981;28;1910;-80
2022/04/20 00:19:53;;;;;;;;;;;;;;;;;;349945;28;984;-80
2022/04/20 00:20:04;;;;;;;;;;;;;;;;;;350068;28;959;-80
2022/04/20 00:20:14;;;;;;;;;;;;;;;;;;350014;28;1046;-80
2022/04/20 00:20:24;;;;;;;;;;;;;;;;;;350014;28;989;-81
2022/04/20 00:20:35;;;;;;;;;;;;;;;;;;350045;28;920;-80
2022/04/20 00:20:45;;;;;;;;;;;;;;;;;;349900;28;1197;-80
2022/04/20 00:20:55;;;;;;;;;;;;;;;;;;350084;28;1011;-80
2022/04/20 00:21:05;;;;;;;;;;;;;;;;;;350072;28;983;-80
2022/04/20 00:21:16;;;;;;;;;;;;;;;;;;350027;28;876;-80
2022/04/20 00:21:26;;;;;;;;;;;;;;;;;;349992;28;1089;-80
2022/04/20 00:21:36;;;;;;;;;;;;;;;;;;350100;28;920;-80
2022/04/20 00:21:46;;;;;;;;;;;;;;;;;;350032;28;916;-80
2022/04/20 00:21:57;;;;;;;;;;;;;;;;;;350012;28;995;-80
2022/04/20 00:22:07;;;;;;;;;;;;;;;;;;350091;28;832;-79
2022/04/20 00:22:17;;;;;;;;;;;;;;;;;;350068;28;888;-79
2022/04/20 00:22:27;;;;;;;;;;;;;;;;;;350017;28;832;-79
2022/04/20 00:22:38;;;;;;;;;;;;;;;;;;350044;28;948;-81
2022/04/20 00:22:48;;;;;;;;;;;;;;;;;;350037;28;1008;-80
2022/04/20 00:22:58;;;;;;;;;;;;;;;;;;350067;28;987;-80
2022/04/20 00:23:08;;;;;;;;;;;;;;;;;;350028;28;928;-81
2022/04/20 00:23:19;;;;;;;;;;;;;;;;;;349968;28;971;-80
2022/04/20 00:23:29;;;;;;;;;;;;;;;;;;350063;28;960;-80
2022/04/20 00:23:39;;;;;;;;;;;;;;;;;;352691;28;1261;-80
2022/04/20 00:23:50;;;;;;;;;;;;;;;;;;351892;28;916;-80
2022/04/20 00:24:00;;;;;;;;;;;;;;;;;;351353;28;900;-80
2022/04/20 00:24:10;;;;;;;;;;;;;;;;;;351366;28;968;-80
2022/04/20 00:24:20;;;;;;;;;;;;;;;;;;351331;28;919;-80
2022/04/20 00:24:31;;;;;;;;;;;;;;;;;;351403;28;853;-80
2022/04/20 00:24:41;;;;;;;;;;;;;;;;;;351323;28;1004;-80
2022/04/20 00:24:51;;;;;;;;;;;;;;;;;;351140;28;1010;-80
2022/04/20 00:25:01;;;;;;;;;;;;;;;;;;351364;28;916;-80
2022/04/20 00:25:12;;;;;;;;;;;;;;;;;;351351;28;991;-80
2022/04/20 00:25:22;;;;;;;;;;;;;;;;;;351304;28;804;-80
2022/04/20 00:25:33;;;;;;;;;;;;;;;;;;350778;28;995;-80
2022/04/20 00:25:43;;;;;;;;;;;;;;;;;;348696;28;913;-80
2022/04/20 00:25:53;;;;;;;;;;;;;;;;;;348675;28;919;-80
2022/04/20 00:26:04;;;;;;;;;;;;;;;;;;348706;28;979;-80
2022/04/20 00:26:14;;;;;;;;;;;;;;;;;;349102;28;1790;-81
2022/04/20 00:26:24;;;;;;;;;;;;;;;;;;351207;28;881;-80
2022/04/20 00:26:34;;;;;;;;;;;;;;;;;;351420;28;980;-80
2022/04/20 00:26:45;;;;;;;;;;;;;;;;;;351444;28;832;-80
2022/04/20 00:26:55;;;;;;;;;;;;;;;;;;351414;28;857;-80
2022/04/20 00:27:05;;;;;;;;;;;;;;;;;;351459;28;908;-80
2022/04/20 00:27:15;;;;;;;;;;;;;;;;;;351414;28;1027;-80
2022/04/20 00:27:26;;;;;;;;;;;;;;;;;;351411;28;991;-80
2022/04/20 00:27:36;;;;;;;;;;;;;;;;;;351439;28;944;-80
2022/04/20 00:27:47;;;;;;;;;;;;;;;;;;351509;28;781;-80
2022/04/20 00:27:57;;;;;;;;;;;;;;;;;;351470;28;785;-80
2022/04/20 00:28:07;;;;;;;;;;;;;;;;;;350533;28;1793;-80
2022/04/20 00:28:17;;;;;;;;;;;;;;;;;;351187;28;853;-80
2022/04/20 00:28:28;;;;;;;;;;;;;;;;;;351437;28;952;-81
2022/04/20 00:28:38;;;;;;;;;;;;;;;;;;351283;28;1014;-80
2022/04/20 00:28:48;;;;;;;;;;;;;;;;;;351464;28;916;-80
2022/04/20 00:28:58;;;;;;;;;;;;;;;;;;351457;28;936;-80
2022/04/20 00:29:09;;;;;;;;;;;;;;;;;;351406;28;948;-80
2022/04/20 00:29:19;;;;;;;;;;;;;;;;;;351074;28;1721;-80
2022/04/20 00:29:29;;;;;;;;;;;;;;;;;;348430;28;1316;-81
2022/04/20 00:29:39;;;;;;;;;;;;;;;;;;349693;28;1515;-80
2022/04/20 00:29:49;;;;;;;;;;;;;;;;;;350074;28;952;-80
2022/04/20 00:30:00;;;;;;;;;;;;;;;;;;348718;28;1564;-80
2022/04/20 00:30:11;;;;;;;;;;;;;;;;;;348549;28;1546;-80
2022/04/20 00:30:21;;;;;;;;;;;;;;;;;;348588;28;892;-80
2022/04/20 00:30:31;;;;;;;;;;;;;;;;;;349752;28;849;-80
2022/04/20 00:30:41;;;;;;;;;;;;;;;;;;350081;28;947;-80
2022/04/20 00:30:52;;;;;;;;;;;;;;;;;;349988;28;960;-80
2022/04/20 00:31:02;;;;;;;;;;;;;;;;;;350010;28;912;-80
2022/04/20 00:31:12;;;;;;;;;;;;;;;;;;350062;28;979;-81
2022/04/20 00:31:22;;;;;;;;;;;;;;;;;;350040;28;927;-80
2022/04/20 00:31:33;;;;;;;;;;;;;;;;;;350017;28;994;-80
2022/04/20 00:31:43;;;;;;;;;;;;;;;;;;350048;28;924;-80
2022/04/20 00:31:53;;;;;;;;;;;;;;;;;;350060;28;904;-80
2022/04/20 00:32:03;;;;;;;;;;;;;;;;;;350078;28;920;-80
2022/04/20 00:32:14;;;;;;;;;;;;;;;;;;350056;28;943;-80
2022/04/20 00:32:24;;;;;;;;;;;;;;;;;;350086;28;896;-80
2022/04/20 00:32:34;;;;;;;;;;;;;;;;;;349978;28;912;-80
2022/04/20 00:32:45;;;;;;;;;;;;;;;;;;350076;28;881;-80
2022/04/20 00:32:55;;;;;;;;;;;;;;;;;;350030;28;900;-80
2022/04/20 00:33:05;;;;;;;;;;;;;;;;;;349970;28;1038;-80
2022/04/20 00:33:15;;;;;;;;;;;;;;;;;;349767;28;1767;-80
2022/04/20 00:33:26;;;;;;;;;;;;;;;;;;350575;28;1594;-80
2022/04/20 00:33:37;;;;;;;;;;;;;;;;;;351484;28;917;-80
2022/04/20 00:33:47;;;;;;;;;;;;;;;;;;351411;28;1250;-80
2022/04/20 00:33:58;;;;;;;;;;;;;;;;;;351256;28;1002;-80
2022/04/20 00:34:08;;;;;;;;;;;;;;;;;;351435;28;995;-80
2022/04/20 00:34:18;;;;;;;;;;;;;;;;;;351440;28;813;-80
2022/04/20 00:34:28;;;;;;;;;;;;;;;;;;351307;28;1152;-80
2022/04/20 00:34:38;;;;;;;;;;;;;;;;;;351398;28;847;-80
2022/04/20 00:34:49;;;;;;;;;;;;;;;;;;351402;28;1046;-80
2022/04/20 00:34:59;;;;;;;;;;;;;;;;;;351473;28;908;-80
2022/04/20 00:35:12;;;;;;;;;;;;;;;;;;351389;28;1003;-80
2022/04/20 00:35:23;;;;;;;;;;;;;;;;;;351432;28;940;-80
2022/04/20 00:35:33;;;;;;;;;;;;;;;;;;351452;28;1007;-80
2022/04/20 00:35:44;;;;;;;;;;;;;;;;;;351439;28;928;-80
2022/04/20 00:35:54;;;;;;;;;;;;;;;;;;351411;28;924;-80
2022/04/20 00:36:04;;;;;;;;;;;;;;;;;;351412;28;816;-80
2022/04/20 00:36:15;;;;;;;;;;;;;;;;;;351464;28;908;-80
2022/04/20 00:36:25;;;;;;;;;;;;;;;;;;351485;28;924;-80
2022/04/20 00:36:35;;;;;;;;;;;;;;;;;;351374;28;920;-80
2022/04/20 00:36:50;;;;;;;;;;;;;;;;;;351403;28;971;-80
2022/04/20 00:37:01;;;;;;;;;;;;;;;;;;351460;28;928;-80
2022/04/20 00:37:11;;;;;;;;;;;;;;;;;;351396;28;865;-80
2022/04/20 00:37:21;;;;;;;;;;;;;;;;;;351429;28;994;-80
2022/04/20 00:37:33;;;;;;;;;;;;;;;;;;351295;28;1231;-80
2022/04/20 00:37:43;;;;;;;;;;;;;;;;;;351398;28;1007;-80
2022/04/20 00:37:54;;;;;;;;;;;;;;;;;;351414;28;931;-80
2022/04/20 00:38:04;;;;;;;;;;;;;;;;;;351415;28;1221;-80
2022/04/20 00:38:16;;;;;;;;;;;;;;;;;;351470;28;880;-80
2022/04/20 00:38:26;;;;;;;;;;;;;;;;;;350108;28;1286;-80
2022/04/20 00:38:37;;;;;;;;;;;;;;;;;;351415;28;978;-80
2022/04/20 00:38:48;;;;;;;;;;;;;;;;;;351411;28;832;-80
2022/04/20 00:38:58;;;;;;;;;;;;;;;;;;351452;28;802;-80
2022/04/20 00:39:08;;;;;;;;;;;;;;;;;;351454;28;1003;-80
2022/04/20 00:39:20;;;;;;;;;;;;;;;;;;351299;28;999;-80
2022/04/20 00:39:30;;;;;;;;;;;;;;;;;;351442;28;991;-80
2022/04/20 00:39:40;;;;;;;;;;;;;;;;;;351370;28;1910;-80
2022/04/20 00:39:51;;;;;;;;;;;;;;;;;;351479;28;919;-80
2022/04/20 00:40:03;;;;;;;;;;;;;;;;;;351396;28;949;-80
2022/04/20 00:40:13;;;;;;;;;;;;;;;;;;351377;28;1068;-80
2022/04/20 00:40:23;;;;;;;;;;;;;;;;;;351427;28;1031;-80
2022/04/20 00:40:34;;;;;;;;;;;;;;;;;;350107;28;1726;-80
2022/04/20 00:40:45;;;;;;;;;;;;;;;;;;351387;28;921;-80
2022/04/20 00:40:56;;;;;;;;;;;;;;;;;;351472;28;924;-80
2022/04/20 00:41:08;;;;;;;;;;;;;;;;;;351475;28;863;-80
2022/04/20 00:41:18;;;;;;;;;;;;;;;;;;351413;28;1018;-80
2022/04/20 00:41:28;;;;;;;;;;;;;;;;;;351404;28;876;-80
2022/04/20 00:41:38;;;;;;;;;;;;;;;;;;351326;28;995;-80
2022/04/20 00:41:49;;;;;;;;;;;;;;;;;;351387;28;972;-80
2022/04/20 00:41:59;;;;;;;;;;;;;;;;;;351431;28;952;-80
2022/04/20 00:42:10;;;;;;;;;;;;;;;;;;351365;28;1019;-80
2022/04/20 00:42:22;;;;;;;;;;;;;;;;;;351428;28;971;-81
2022/04/20 00:42:32;;;;;;;;;;;;;;;;;;351501;28;856;-80
2022/04/20 00:42:43;;;;;;;;;;;;;;;;;;351487;28;869;-80
2022/04/20 00:42:53;;;;;;;;;;;;;;;;;;351380;28;967;-80
2022/04/20 00:43:03;;;;;;;;;;;;;;;;;;348417;28;1722;-80
2022/04/20 00:43:14;;;;;;;;;;;;;;;;;;348673;28;909;-80
2022/04/20 00:43:24;;;;;;;;;;;;;;;;;;348557;28;960;-80
2022/04/20 00:43:36;;;;;;;;;;;;;;;;;;348701;28;928;-80
2022/04/20 00:43:47;;;;;;;;;;;;;;;;;;348629;28;1023;-80
2022/04/20 00:43:57;;;;;;;;;;;;;;;;;;348608;28;941;-80
2022/04/20 00:44:08;;;;;;;;;;;;;;;;;;348696;28;841;-80
2022/04/20 00:44:19;;;;;;;;;;;;;;;;;;348678;28;782;-80
2022/04/20 00:44:29;;;;;;;;;;;;;;;;;;348626;28;912;-80
2022/04/20 00:44:40;;;;;;;;;;;;;;;;;;348653;28;984;-80
2022/04/20 00:44:50;;;;;;;;;;;;;;;;;;348605;28;1011;-80
2022/04/20 00:45:01;;;;;;;;;;;;;;;;;;348041;28;1699;-80
2022/04/20 00:45:12;;;;;;;;;;;;;;;;;;348639;28;1887;-80
2022/04/20 00:45:22;;;;;;;;;;;;;;;;;;349191;28;1708;-80
2022/04/20 00:45:32;;;;;;;;;;;;;;;;;;349935;28;932;-80
2022/04/20 00:45:43;;;;;;;;;;;;;;;;;;349072;28;995;-81
2022/04/20 00:45:54;;;;;;;;;;;;;;;;;;348695;28;783;-80
2022/04/20 00:46:06;;;;;;;;;;;;;;;;;;348562;28;1145;-80
2022/04/20 00:46:19;;;;;;;;;;;;;;;;;;349484;28;1302;-80
2022/04/20 00:46:29;;;;;;;;;;;;;;;;;;350814;28;1486;-80
2022/04/20 00:46:40;;;;;;;;;;;;;;;;;;350044;28;1762;-81
2022/04/20 00:46:52;;;;;;;;;;;;;;;;;;348880;28;1649;-80
2022/04/20 00:47:03;;;;;;;;;;;;;;;;;;351402;28;742;-80
2022/04/20 00:47:15;;;;;;;;;;;;;;;;;;351413;28;894;-80
2022/04/20 00:47:26;;;;;;;;;;;;;;;;;;351434;28;979;-80
2022/04/20 00:47:37;;;;;;;;;;;;;;;;;;351430;28;873;-80
2022/04/20 00:47:48;;;;;;;;;;;;;;;;;;351439;28;975;-80
2022/04/20 00:47:59;;;;;;;;;;;;;;;;;;351347;28;1086;-80
2022/04/20 00:48:12;;;;;;;;;;;;;;;;;;351419;28;913;-80
2022/04/20 00:48:22;;;;;;;;;;;;;;;;;;349427;28;1804;-81
2022/04/20 00:48:35;;;;;;;;;;;;;;;;;;351291;28;991;-80
2022/04/20 00:48:47;;;;;;;;;;;;;;;;;;351386;28;952;-80
2022/04/20 00:48:58;;;;;;;;;;;;;;;;;;351439;28;829;-80
2022/04/20 00:49:09;;;;;;;;;;;;;;;;;;351418;28;916;-80
2022/04/20 00:49:21;;;;;;;;;;;;;;;;;;351460;28;928;-80
2022/04/20 00:49:32;;;;;;;;;;;;;;;;;;350080;28;1730;-80
2022/04/20 00:49:42;;;;;;;;;;;;;;;;;;351373;28;916;-80
2022/04/20 00:49:53;;;;;;;;;;;;;;;;;;351434;28;1801;-80
2022/04/20 00:50:04;;;;;;;;;;;;;;;;;;351445;28;884;-80
2022/04/20 00:50:14;;;;;;;;;;;;;;;;;;351431;28;859;-80
2022/04/20 00:50:25;;;;;;;;;;;;;;;;;;351374;28;963;-81
2022/04/20 00:50:35;;;;;;;;;;;;;;;;;;351459;28;796;-80
2022/04/20 00:50:45;;;;;;;;;;;;;;;;;;351451;28;824;-81
2022/04/20 00:50:55;;;;;;;;;;;;;;;;;;351343;28;912;-80
2022/04/20 00:51:05;;;;;;;;;;;;;;;;;;351437;28;829;-80
2022/04/20 00:51:16;;;;;;;;;;;;;;;;;;351386;28;812;-80
2022/04/20 00:51:26;;;;;;;;;;;;;;;;;;351430;28;928;-80
2022/04/20 00:51:36;;;;;;;;;;;;;;;;;;350234;28;1762;-81
2022/04/20 00:51:54;;;;;;;;;;;;;;;;;;349846;28;863;-80
2022/04/20 00:52:06;;;;;;;;;;;;;;;;;;350004;28;944;-80
2022/04/20 00:52:16;;;;;;;;;;;;;;;;;;349994;28;916;-80
2022/04/20 00:52:26;;;;;;;;;;;;;;;;;;350027;28;903;-80
2022/04/20 00:52:37;;;;;;;;;;;;;;;;;;349990;28;974;-80
2022/04/20 00:52:47;;;;;;;;;;;;;;;;;;350721;28;1359;-80
2022/04/20 00:52:57;;;;;;;;;;;;;;;;;;351357;28;995;-80
2022/04/20 00:53:07;;;;;;;;;;;;;;;;;;351393;28;896;-80
2022/04/20 00:53:17;;;;;;;;;;;;;;;;;;351395;28;944;-80
2022/04/20 00:53:28;;;;;;;;;;;;;;;;;;351420;28;928;-80
2022/04/20 00:53:38;;;;;;;;;;;;;;;;;;349490;28;1723;-80
2022/04/20 00:53:48;;;;;;;;;;;;;;;;;;350632;28;1011;-80
2022/04/20 00:54:00;;;;;;;;;;;;;;;;;;351405;28;822;-80
2022/04/20 00:54:11;;;;;;;;;;;;;;;;;;351443;28;848;-80
2022/04/20 00:54:21;;;;;;;;;;;;;;;;;;351407;28;1007;-80
2022/04/20 00:54:32;;;;;;;;;;;;;;;;;;351433;28;1159;-80
2022/04/20 00:54:42;;;;;;;;;;;;;;;;;;351412;28;948;-80
2022/04/20 00:54:52;;;;;;;;;;;;;;;;;;351472;28;931;-80
2022/04/20 00:55:04;;;;;;;;;;;;;;;;;;351425;28;877;-80
2022/04/20 00:55:14;;;;;;;;;;;;;;;;;;351394;28;915;-80
2022/04/20 00:55:24;;;;;;;;;;;;;;;;;;351389;28;999;-80
2022/04/20 00:55:35;;;;;;;;;;;;;;;;;;350453;28;1817;-80
2022/04/20 00:55:45;;;;;;;;;;;;;;;;;;351292;28;912;-80
2022/04/20 00:55:55;;;;;;;;;;;;;;;;;;351374;28;983;-80
2022/04/20 00:56:05;;;;;;;;;;;;;;;;;;351328;28;909;-80
2022/04/20 00:56:15;;;;;;;;;;;;;;;;;;351395;28;864;-81
2022/04/20 00:56:26;;;;;;;;;;;;;;;;;;351448;28;932;-80
2022/04/20 00:56:36;;;;;;;;;;;;;;;;;;351451;28;884;-80
2022/04/20 00:56:46;;;;;;;;;;;;;;;;;;351424;28;968;-80
2022/04/20 00:56:57;;;;;;;;;;;;;;;;;;351385;28;789;-80
2022/04/20 00:57:07;;;;;;;;;;;;;;;;;;351336;28;1144;-80
2022/04/20 00:57:17;;;;;;;;;;;;;;;;;;351453;28;774;-80
2022/04/20 00:57:28;;;;;;;;;;;;;;;;;;351402;28;967;-80
2022/04/20 00:57:38;;;;;;;;;;;;;;;;;;351437;28;996;-80
2022/04/20 00:57:48;;;;;;;;;;;;;;;;;;351386;28;999;-80
2022/04/20 00:57:58;;;;;;;;;;;;;;;;;;351331;28;986;-80
2022/04/20 00:58:08;;;;;;;;;;;;;;;;;;351403;28;952;-80
2022/04/20 00:58:19;;;;;;;;;;;;;;;;;;351403;28;903;-80
2022/04/20 00:58:29;;;;;;;;;;;;;;;;;;350736;28;1299;-80
2022/04/20 00:58:40;;;;;;;;;;;;;;;;;;349396;28;1774;-81
2022/04/20 00:58:50;;;;;;;;;;;;;;;;;;349356;28;1549;-80
2022/04/20 00:59:01;;;;;;;;;;;;;;;;;;351396;28;971;-80
2022/04/20 00:59:13;;;;;;;;;;;;;;;;;;351397;28;983;-80
2022/04/20 00:59:24;;;;;;;;;;;;;;;;;;351414;28;924;-80
2022/04/20 00:59:35;;;;;;;;;;;;;;;;;;351354;28;1019;-80
2022/04/20 00:59:48;;;;;;;;;;;;;;;;;;351339;28;1914;-80
2022/04/20 01:00:00;;;;;;;;;;;;;;;;;;348713;28;1801;-81
2022/04/20 01:00:11;;;;;;;;;;;;;;;;;;349729;28;1735;-81
2022/04/20 01:00:21;;;;;;;;;;;;;;;;;;349817;28;1212;-81
2022/04/20 01:00:31;;;;;;;;;;;;;;;;;;348541;28;1021;-80
2022/04/20 01:00:41;;;;;;;;;;;;;;;;;;348567;28;1719;-80
2022/04/20 01:00:52;;;;;;;;;;;;;;;;;;351390;28;971;-80
2022/04/20 01:01:02;;;;;;;;;;;;;;;;;;351418;28;904;-80
2022/04/20 01:01:13;;;;;;;;;;;;;;;;;;351197;28;1140;-81
2022/04/20 01:01:26;;;;;;;;;;;;;;;;;;351313;28;1112;-80
2022/04/20 01:01:37;;;;;;;;;;;;;;;;;;351391;28;924;-80
2022/04/20 01:01:47;;;;;;;;;;;;;;;;;;351424;28;928;-81
2022/04/20 01:01:58;;;;;;;;;;;;;;;;;;351431;28;911;-80
2022/04/20 01:02:09;;;;;;;;;;;;;;;;;;351381;28;801;-80
2022/04/20 01:02:21;;;;;;;;;;;;;;;;;;351400;28;916;-80
2022/04/20 01:02:31;;;;;;;;;;;;;;;;;;351417;28;991;-81
2022/04/20 01:02:41;;;;;;;;;;;;;;;;;;351442;28;923;-80
2022/04/20 01:02:52;;;;;;;;;;;;;;;;;;351442;28;777;-80
2022/04/20 01:03:02;;;;;;;;;;;;;;;;;;351451;28;923;-80
2022/04/20 01:03:12;;;;;;;;;;;;;;;;;;351323;28;1046;-80
2022/04/20 01:03:23;;;;;;;;;;;;;;;;;;351285;28;1005;-80
2022/04/20 01:03:33;;;;;;;;;;;;;;;;;;351422;28;964;-80
2022/04/20 01:03:44;;;;;;;;;;;;;;;;;;349523;28;1782;-81
2022/04/20 01:03:54;;;;;;;;;;;;;;;;;;351151;27;768;-80
2022/04/20 01:04:05;;;;;;;;;;;;;;;;;;351435;28;853;-80
2022/04/20 01:04:15;;;;;;;;;;;;;;;;;;351322;28;1215;-80
2022/04/20 01:04:25;;;;;;;;;;;;;;;;;;351417;28;915;-80
2022/04/20 01:04:36;;;;;;;;;;;;;;;;;;351334;28;947;-80
2022/04/20 01:04:46;;;;;;;;;;;;;;;;;;351420;28;932;-80
2022/04/20 01:04:56;;;;;;;;;;;;;;;;;;351425;28;963;-80
2022/04/20 01:05:06;;;;;;;;;;;;;;;;;;351395;28;841;-80
2022/04/20 01:05:17;;;;;;;;;;;;;;;;;;351375;28;848;-80
2022/04/20 01:05:27;;;;;;;;;;;;;;;;;;351381;28;998;-80
2022/04/20 01:05:37;;;;;;;;;;;;;;;;;;351420;28;967;-80
2022/04/20 01:05:47;;;;;;;;;;;;;;;;;;351425;28;927;-80
2022/04/20 01:05:58;;;;;;;;;;;;;;;;;;351332;28;963;-80
2022/04/20 01:06:08;;;;;;;;;;;;;;;;;;351437;28;924;-81
2022/04/20 01:06:18;;;;;;;;;;;;;;;;;;351308;28;935;-80
2022/04/20 01:06:28;;;;;;;;;;;;;;;;;;351413;28;1041;-80
2022/04/20 01:06:39;;;;;;;;;;;;;;;;;;351375;28;970;-80
2022/04/20 01:06:49;;;;;;;;;;;;;;;;;;349462;28;1754;-80
2022/04/20 01:07:00;;;;;;;;;;;;;;;;;;349935;28;1518;-80
2022/04/20 01:07:14;;;;;;;;;;;;;;;;;;349992;28;979;-80
2022/04/20 01:07:24;;;;;;;;;;;;;;;;;;349860;28;1495;-80
2022/04/20 01:07:40;;;;;;;;;;;;;;;;;;350024;28;855;-80
2022/04/20 01:07:50;;;;;;;;;;;;;;;;;;350016;28;1122;-80
2022/04/20 01:08:01;;;;;;;;;;;;;;;;;;349994;28;935;-80
2022/04/20 01:08:11;;;;;;;;;;;;;;;;;;349918;28;1086;-80
2022/04/20 01:08:22;;;;;;;;;;;;;;;;;;349946;28;884;-80
2022/04/20 01:08:32;;;;;;;;;;;;;;;;;;349999;28;943;-80
2022/04/20 01:08:43;;;;;;;;;;;;;;;;;;350017;28;896;-80
2022/04/20 01:08:53;;;;;;;;;;;;;;;;;;350013;28;987;-80
2022/04/20 01:09:03;;;;;;;;;;;;;;;;;;350005;28;924;-80
2022/04/20 01:09:14;;;;;;;;;;;;;;;;;;350038;28;856;-80
2022/04/20 01:09:24;;;;;;;;;;;;;;;;;;349987;28;986;-80
2022/04/20 01:09:34;;;;;;;;;;;;;;;;;;349955;28;924;-80
2022/04/20 01:09:44;;;;;;;;;;;;;;;;;;349908;28;1754;-81
2022/04/20 01:09:55;;;;;;;;;;;;;;;;;;349930;28;1451;-80
2022/04/20 01:10:05;;;;;;;;;;;;;;;;;;351438;28;833;-80
2022/04/20 01:10:16;;;;;;;;;;;;;;;;;;351283;28;1076;-80
2022/04/20 01:10:26;;;;;;;;;;;;;;;;;;351361;28;904;-80
2022/04/20 01:10:36;;;;;;;;;;;;;;;;;;350266;28;1671;-81
2022/04/20 01:10:46;;;;;;;;;;;;;;;;;;351309;28;1015;-80
2022/04/20 01:10:56;;;;;;;;;;;;;;;;;;351348;28;900;-80
2022/04/20 01:11:07;;;;;;;;;;;;;;;;;;351410;28;927;-81
2022/04/20 01:11:17;;;;;;;;;;;;;;;;;;351422;28;956;-81
2022/04/20 01:11:27;;;;;;;;;;;;;;;;;;351390;28;820;-80
2022/04/20 01:11:38;;;;;;;;;;;;;;;;;;351364;28;999;-80
2022/04/20 01:11:50;;;;;;;;;;;;;;;;;;351414;28;923;-81
2022/04/20 01:12:00;;;;;;;;;;;;;;;;;;351416;28;919;-80
2022/04/20 01:12:15;;;;;;;;;;;;;;;;;;351443;28;852;-80
2022/04/20 01:12:25;;;;;;;;;;;;;;;;;;350414;28;1748;-80
2022/04/20 01:12:36;;;;;;;;;;;;;;;;;;349957;28;999;-80
2022/04/20 01:12:46;;;;;;;;;;;;;;;;;;349682;28;1027;-80
2022/04/20 01:12:56;;;;;;;;;;;;;;;;;;348616;28;995;-80
2022/04/20 01:13:07;;;;;;;;;;;;;;;;;;348598;28;872;-80
2022/04/20 01:13:17;;;;;;;;;;;;;;;;;;348639;28;880;-80
2022/04/20 01:13:28;;;;;;;;;;;;;;;;;;348667;28;943;-80
2022/04/20 01:13:38;;;;;;;;;;;;;;;;;;348609;28;856;-80
2022/04/20 01:13:48;;;;;;;;;;;;;;;;;;348178;28;1692;-81
2022/04/20 01:13:58;;;;;;;;;;;;;;;;;;350034;28;808;-80
2022/04/20 01:14:09;;;;;;;;;;;;;;;;;;349986;28;873;-80
2022/04/20 01:14:20;;;;;;;;;;;;;;;;;;350022;28;1007;-80
2022/04/20 01:14:30;;;;;;;;;;;;;;;;;;349985;28;936;-80
2022/04/20 01:14:40;;;;;;;;;;;;;;;;;;349914;28;990;-80
2022/04/20 01:14:50;;;;;;;;;;;;;;;;;;349996;28;983;-81
2022/04/20 01:15:01;;;;;;;;;;;;;;;;;;350020;28;829;-80
2022/04/20 01:15:14;;;;;;;;;;;;;;;;;;349935;28;1018;-80
2022/04/20 01:15:25;;;;;;;;;;;;;;;;;;349973;28;872;-80
2022/04/20 01:15:35;;;;;;;;;;;;;;;;;;349981;28;884;-80